Kezdőlap
METAR-TAF:

METAR-TAF

Repülőterek :

Asztrahán, Oroszország

földrajzi szélesség: 46-17N, földrajzi hosszúság: 048-00-23E, magasság: 0 m

Jelenlegi meteorológiai megfigyelések

A jelentés 34 perccel ezelõtt készült, 01:30 UTC
Északkeleti szél 10 kt
Hőmérséklet -13°C
Páratartalom 66%
Légköri nyomás 1043 hPa
Látótávolság 10 km, vagy több
felhőtlen 1500 m magasságban, és nincs gomolyfelhõ

METAR: URWA 220130Z 05005MPS CAVOK M13/M18 Q1043 R09/010070 NOSIG RMK QFE784/1046

Idő: 06:04 (02:04 UTC)

Előrejelzés

A jelentés 3 órával és 4 perccel ezelõtt készült, 23:00 UTC
Az előrejelzés 22-én 00 óra UTC és 22-én 09 óra UTC között érvényes
Északkeleti szél 12 kt széllökések: 23 kt
Látótávolság 10 km, vagy több
Szórványos felhőzet 2000 lábon

TAF: URWA 212300Z 2200/2209 04006G12MPS 9999 SCT020

Meteorológiai megfigyelések és előrejelzések több, mint 4000 repülőtéren (METAR és TAF jelentéseket).

A térképen piros és sárga pontok jelzik az elérhető meteorológiai állomásokat.

Mozgassa az egeret a pont fölött, hogy megjelenjen az állomás neve.

Azután kattintson az időjárási megfigyelések és előrejelzések megtekintéséhez.

A térkép megváltoztatása: kattintson a fekete keresztel jelölt zöld gombra ráközelítéshez, a vonallal jelölt zöld gombra távolításhoz, vagy a zöld nyilakra a szomszédos térképek eléréséhez.


METAR-TAF: